sensor_id;sensor_type;location;lat;lon;timestamp;P1;durP1;ratioP1;P2;durP2;ratioP2
6109;SDS011;3085;49.444;11.054;2023-04-15T00:01:40;9.60;;;3.83;;
6109;SDS011;3085;49.444;11.054;2023-04-15T00:04:07;5.97;;;4.30;;
6109;SDS011;3085;49.444;11.054;2023-04-15T00:06:35;8.07;;;5.10;;
6109;SDS011;3085;49.444;11.054;2023-04-15T00:09:05;6.60;;;4.53;;
6109;SDS011;3085;49.444;11.054;2023-04-15T00:11:31;7.47;;;4.60;;
6109;SDS011;3085;49.444;11.054;2023-04-15T00:13:58;6.97;;;4.50;;
6109;SDS011;3085;49.444;11.054;2023-04-15T00:16:25;5.43;;;3.93;;
6109;SDS011;3085;49.444;11.054;2023-04-15T00:18:52;8.30;;;5.47;;
6109;SDS011;3085;49.444;11.054;2023-04-15T00:21:19;6.60;;;4.30;;
6109;SDS011;3085;49.444;11.054;2023-04-15T00:23:45;6.77;;;4.20;;
6109;SDS011;3085;49.444;11.054;2023-04-15T00:26:17;5.50;;;4.13;;
6109;SDS011;3085;49.444;11.054;2023-04-15T00:28:44;5.27;;;3.47;;
6109;SDS011;3085;49.444;11.054;2023-04-15T00:31:11;8.57;;;4.43;;
6109;SDS011;3085;49.444;11.054;2023-04-15T00:33:38;8.70;;;3.80;;
6109;SDS011;3085;49.444;11.054;2023-04-15T00:36:05;6.63;;;4.20;;
6109;SDS011;3085;49.444;11.054;2023-04-15T00:38:33;7.53;;;3.70;;
6109;SDS011;3085;49.444;11.054;2023-04-15T00:41:01;5.43;;;3.43;;
6109;SDS011;3085;49.444;11.054;2023-04-15T00:43:30;5.83;;;3.70;;
6109;SDS011;3085;49.444;11.054;2023-04-15T00:45:57;5.53;;;3.93;;
6109;SDS011;3085;49.444;11.054;2023-04-15T00:48:24;4.47;;;3.50;;
6109;SDS011;3085;49.444;11.054;2023-04-15T00:50:52;5.70;;;4.00;;
6109;SDS011;3085;49.444;11.054;2023-04-15T00:53:19;6.40;;;4.10;;
6109;SDS011;3085;49.444;11.054;2023-04-15T00:55:45;8.73;;;3.80;;
6109;SDS011;3085;49.444;11.054;2023-04-15T00:58:12;7.57;;;3.87;;
6109;SDS011;3085;49.444;11.054;2023-04-15T01:00:41;4.50;;;3.77;;
6109;SDS011;3085;49.444;11.054;2023-04-15T01:03:08;5.90;;;3.50;;
6109;SDS011;3085;49.444;11.054;2023-04-15T01:05:35;5.87;;;4.20;;
6109;SDS011;3085;49.444;11.054;2023-04-15T01:08:03;5.57;;;4.40;;
6109;SDS011;3085;49.444;11.054;2023-04-15T01:10:30;7.30;;;4.00;;
6109;SDS011;3085;49.444;11.054;2023-04-15T01:12:57;7.00;;;4.70;;
6109;SDS011;3085;49.444;11.054;2023-04-15T01:15:24;8.80;;;3.70;;
6109;SDS011;3085;49.444;11.054;2023-04-15T01:17:53;7.13;;;4.73;;
6109;SDS011;3085;49.444;11.054;2023-04-15T01:20:20;5.93;;;4.10;;
6109;SDS011;3085;49.444;11.054;2023-04-15T01:22:47;6.90;;;4.13;;
6109;SDS011;3085;49.444;11.054;2023-04-15T01:25:17;9.87;;;4.37;;
6109;SDS011;3085;49.444;11.054;2023-04-15T01:27:47;7.10;;;4.13;;
6109;SDS011;3085;49.444;11.054;2023-04-15T01:30:13;8.60;;;4.80;;
6109;SDS011;3085;49.444;11.054;2023-04-15T01:32:41;7.97;;;4.67;;
6109;SDS011;3085;49.444;11.054;2023-04-15T01:35:08;5.30;;;4.30;;
6109;SDS011;3085;49.444;11.054;2023-04-15T01:37:35;16.40;;;4.43;;
6109;SDS011;3085;49.444;11.054;2023-04-15T01:40:02;4.10;;;3.30;;
6109;SDS011;3085;49.444;11.054;2023-04-15T01:42:30;11.30;;;4.17;;
6109;SDS011;3085;49.444;11.054;2023-04-15T01:44:58;5.17;;;3.43;;
6109;SDS011;3085;49.444;11.054;2023-04-15T01:47:25;7.73;;;4.00;;
6109;SDS011;3085;49.444;11.054;2023-04-15T01:49:51;4.73;;;3.60;;
6109;SDS011;3085;49.444;11.054;2023-04-15T01:52:18;8.30;;;3.93;;
6109;SDS011;3085;49.444;11.054;2023-04-15T01:54:45;7.37;;;4.20;;
6109;SDS011;3085;49.444;11.054;2023-04-15T01:57:12;7.30;;;4.37;;
6109;SDS011;3085;49.444;11.054;2023-04-15T01:59:39;6.33;;;3.63;;
6109;SDS011;3085;49.444;11.054;2023-04-15T02:02:07;7.90;;;3.83;;
6109;SDS011;3085;49.444;11.054;2023-04-15T02:04:34;6.63;;;3.83;;
6109;SDS011;3085;49.444;11.054;2023-04-15T02:07:01;4.63;;;3.07;;
6109;SDS011;3085;49.444;11.054;2023-04-15T02:09:28;4.20;;;3.70;;
6109;SDS011;3085;49.444;11.054;2023-04-15T02:11:55;9.13;;;4.07;;
6109;SDS011;3085;49.444;11.054;2023-04-15T02:14:22;5.83;;;3.97;;
6109;SDS011;3085;49.444;11.054;2023-04-15T02:16:49;5.60;;;3.27;;
6109;SDS011;3085;49.444;11.054;2023-04-15T02:19:17;5.03;;;3.17;;
6109;SDS011;3085;49.444;11.054;2023-04-15T02:21:44;9.77;;;3.43;;
6109;SDS011;3085;49.444;11.054;2023-04-15T02:24:10;4.97;;;3.73;;
6109;SDS011;3085;49.444;11.054;2023-04-15T02:26:37;6.80;;;3.83;;
6109;SDS011;3085;49.444;11.054;2023-04-15T02:29:04;5.13;;;3.30;;
6109;SDS011;3085;49.444;11.054;2023-04-15T02:31:31;5.67;;;3.53;;
6109;SDS011;3085;49.444;11.054;2023-04-15T02:34:01;6.83;;;4.13;;
6109;SDS011;3085;49.444;11.054;2023-04-15T02:36:30;5.53;;;3.83;;
6109;SDS011;3085;49.444;11.054;2023-04-15T02:38:57;5.67;;;4.17;;
6109;SDS011;3085;49.444;11.054;2023-04-15T02:41:23;5.57;;;3.93;;
6109;SDS011;3085;49.444;11.054;2023-04-15T02:43:52;6.27;;;3.93;;
6109;SDS011;3085;49.444;11.054;2023-04-15T02:46:19;5.93;;;3.50;;
6109;SDS011;3085;49.444;11.054;2023-04-15T02:48:46;4.03;;;2.73;;
6109;SDS011;3085;49.444;11.054;2023-04-15T02:51:13;23.63;;;4.07;;
6109;SDS011;3085;49.444;11.054;2023-04-15T02:53:43;8.03;;;3.87;;
6109;SDS011;3085;49.444;11.054;2023-04-15T02:56:10;4.70;;;3.13;;
6109;SDS011;3085;49.444;11.054;2023-04-15T02:58:39;6.30;;;4.80;;
6109;SDS011;3085;49.444;11.054;2023-04-15T03:01:06;9.17;;;4.10;;
6109;SDS011;3085;49.444;11.054;2023-04-15T03:03:33;9.40;;;3.50;;
6109;SDS011;3085;49.444;11.054;2023-04-15T03:06:00;5.93;;;3.53;;
6109;SDS011;3085;49.444;11.054;2023-04-15T03:08:27;4.60;;;3.40;;
6109;SDS011;3085;49.444;11.054;2023-04-15T03:10:55;5.57;;;3.87;;
6109;SDS011;3085;49.444;11.054;2023-04-15T03:13:24;7.87;;;4.30;;
6109;SDS011;3085;49.444;11.054;2023-04-15T03:15:51;4.63;;;3.60;;
6109;SDS011;3085;49.444;11.054;2023-04-15T03:18:18;6.03;;;3.43;;
6109;SDS011;3085;49.444;11.054;2023-04-15T03:20:45;7.53;;;3.93;;
6109;SDS011;3085;49.444;11.054;2023-04-15T03:23:12;9.00;;;3.50;;
6109;SDS011;3085;49.444;11.054;2023-04-15T03:25:39;7.40;;;4.40;;
6109;SDS011;3085;49.444;11.054;2023-04-15T03:28:07;6.20;;;4.00;;
6109;SDS011;3085;49.444;11.054;2023-04-15T03:30:34;7.17;;;4.23;;
6109;SDS011;3085;49.444;11.054;2023-04-15T03:33:00;4.53;;;3.67;;
6109;SDS011;3085;49.444;11.054;2023-04-15T03:35:27;6.70;;;4.13;;
6109;SDS011;3085;49.444;11.054;2023-04-15T03:37:54;8.90;;;4.07;;
6109;SDS011;3085;49.444;11.054;2023-04-15T03:40:21;7.97;;;3.80;;
6109;SDS011;3085;49.444;11.054;2023-04-15T03:42:48;6.77;;;4.17;;
6109;SDS011;3085;49.444;11.054;2023-04-15T03:45:16;5.60;;;3.87;;
6109;SDS011;3085;49.444;11.054;2023-04-15T03:47:43;6.40;;;3.67;;
6109;SDS011;3085;49.444;11.054;2023-04-15T03:50:10;7.93;;;4.47;;
6109;SDS011;3085;49.444;11.054;2023-04-15T03:52:37;8.13;;;4.20;;
6109;SDS011;3085;49.444;11.054;2023-04-15T03:55:06;11.67;;;4.17;;
6109;SDS011;3085;49.444;11.054;2023-04-15T03:57:34;5.97;;;3.77;;
6109;SDS011;3085;49.444;11.054;2023-04-15T04:00:03;7.23;;;3.80;;
6109;SDS011;3085;49.444;11.054;2023-04-15T04:02:32;5.80;;;3.93;;
6109;SDS011;3085;49.444;11.054;2023-04-15T04:04:59;6.37;;;4.07;;
6109;SDS011;3085;49.444;11.054;2023-04-15T04:07:25;6.00;;;3.57;;
6109;SDS011;3085;49.444;11.054;2023-04-15T04:09:52;8.30;;;4.33;;
6109;SDS011;3085;49.444;11.054;2023-04-15T04:12:19;8.57;;;4.17;;
6109;SDS011;3085;49.444;11.054;2023-04-15T04:14:47;8.50;;;3.90;;
6109;SDS011;3085;49.444;11.054;2023-04-15T04:17:14;3.93;;;3.13;;
6109;SDS011;3085;49.444;11.054;2023-04-15T04:19:42;4.50;;;3.37;;
6109;SDS011;3085;49.444;11.054;2023-04-15T04:22:08;7.27;;;4.17;;
6109;SDS011;3085;49.444;11.054;2023-04-15T04:24:36;5.13;;;3.87;;
6109;SDS011;3085;49.444;11.054;2023-04-15T04:27:04;5.13;;;4.13;;
6109;SDS011;3085;49.444;11.054;2023-04-15T04:29:30;6.20;;;3.93;;
6109;SDS011;3085;49.444;11.054;2023-04-15T04:31:57;6.43;;;3.97;;
6109;SDS011;3085;49.444;11.054;2023-04-15T04:34:24;6.10;;;3.70;;
6109;SDS011;3085;49.444;11.054;2023-04-15T04:36:52;5.60;;;4.00;;
6109;SDS011;3085;49.444;11.054;2023-04-15T04:39:19;5.10;;;3.70;;
6109;SDS011;3085;49.444;11.054;2023-04-15T04:41:46;7.90;;;4.00;;
6109;SDS011;3085;49.444;11.054;2023-04-15T04:44:12;8.13;;;4.00;;
6109;SDS011;3085;49.444;11.054;2023-04-15T04:46:40;4.90;;;3.70;;
6109;SDS011;3085;49.444;11.054;2023-04-15T04:49:06;8.20;;;3.93;;
6109;SDS011;3085;49.444;11.054;2023-04-15T04:51:33;6.40;;;4.20;;
6109;SDS011;3085;49.444;11.054;2023-04-15T04:54:02;14.00;;;4.50;;
6109;SDS011;3085;49.444;11.054;2023-04-15T04:56:29;7.70;;;4.80;;
6109;SDS011;3085;49.444;11.054;2023-04-15T04:58:56;8.27;;;3.70;;
6109;SDS011;3085;49.444;11.054;2023-04-15T05:01:23;7.40;;;4.13;;
6109;SDS011;3085;49.444;11.054;2023-04-15T05:03:50;5.67;;;4.17;;
6109;SDS011;3085;49.444;11.054;2023-04-15T05:06:17;7.27;;;4.07;;
6109;SDS011;3085;49.444;11.054;2023-04-15T05:08:44;9.30;;;5.40;;
6109;SDS011;3085;49.444;11.054;2023-04-15T05:11:12;5.43;;;3.80;;
6109;SDS011;3085;49.444;11.054;2023-04-15T05:13:39;8.00;;;4.43;;
6109;SDS011;3085;49.444;11.054;2023-04-15T05:16:06;6.47;;;4.30;;
6109;SDS011;3085;49.444;11.054;2023-04-15T05:18:33;5.97;;;4.07;;
6109;SDS011;3085;49.444;11.054;2023-04-15T05:21:00;6.40;;;4.60;;
6109;SDS011;3085;49.444;11.054;2023-04-15T05:23:28;6.63;;;3.73;;
6109;SDS011;3085;49.444;11.054;2023-04-15T05:25:55;4.47;;;3.57;;
6109;SDS011;3085;49.444;11.054;2023-04-15T05:28:23;7.30;;;4.27;;
6109;SDS011;3085;49.444;11.054;2023-04-15T05:30:49;4.40;;;3.60;;
6109;SDS011;3085;49.444;11.054;2023-04-15T05:33:16;5.97;;;3.90;;
6109;SDS011;3085;49.444;11.054;2023-04-15T05:35:43;10.73;;;4.70;;
6109;SDS011;3085;49.444;11.054;2023-04-15T05:38:10;8.60;;;5.00;;
6109;SDS011;3085;49.444;11.054;2023-04-15T05:40:37;10.90;;;4.00;;
6109;SDS011;3085;49.444;11.054;2023-04-15T05:43:04;9.67;;;4.30;;
6109;SDS011;3085;49.444;11.054;2023-04-15T05:45:32;8.43;;;4.40;;
6109;SDS011;3085;49.444;11.054;2023-04-15T05:47:59;6.43;;;4.30;;
6109;SDS011;3085;49.444;11.054;2023-04-15T05:50:25;18.53;;;4.97;;
6109;SDS011;3085;49.444;11.054;2023-04-15T05:52:52;7.97;;;5.20;;
6109;SDS011;3085;49.444;11.054;2023-04-15T05:55:20;8.33;;;4.80;;
6109;SDS011;3085;49.444;11.054;2023-04-15T05:57:47;5.90;;;4.20;;
6109;SDS011;3085;49.444;11.054;2023-04-15T06:00:14;11.80;;;4.93;;
6109;SDS011;3085;49.444;11.054;2023-04-15T06:02:42;13.00;;;4.20;;
6109;SDS011;3085;49.444;11.054;2023-04-15T06:05:09;8.10;;;4.80;;
6109;SDS011;3085;49.444;11.054;2023-04-15T06:07:36;9.17;;;4.10;;
6109;SDS011;3085;49.444;11.054;2023-04-15T06:10:04;5.37;;;3.90;;
6109;SDS011;3085;49.444;11.054;2023-04-15T06:12:32;7.97;;;4.93;;
6109;SDS011;3085;49.444;11.054;2023-04-15T06:14:58;7.07;;;4.27;;
6109;SDS011;3085;49.444;11.054;2023-04-15T06:17:25;8.93;;;5.17;;
6109;SDS011;3085;49.444;11.054;2023-04-15T06:19:54;6.80;;;4.03;;
6109;SDS011;3085;49.444;11.054;2023-04-15T06:22:20;6.97;;;4.20;;
6109;SDS011;3085;49.444;11.054;2023-04-15T06:24:47;7.43;;;4.57;;
6109;SDS011;3085;49.444;11.054;2023-04-15T06:27:15;7.73;;;4.43;;
6109;SDS011;3085;49.444;11.054;2023-04-15T06:29:42;9.90;;;4.53;;
6109;SDS011;3085;49.444;11.054;2023-04-15T06:32:09;9.37;;;4.80;;
6109;SDS011;3085;49.444;11.054;2023-04-15T06:34:37;7.37;;;5.00;;
6109;SDS011;3085;49.444;11.054;2023-04-15T06:37:05;5.80;;;3.80;;
6109;SDS011;3085;49.444;11.054;2023-04-15T06:39:34;7.23;;;4.50;;
6109;SDS011;3085;49.444;11.054;2023-04-15T06:42:01;9.43;;;5.30;;
6109;SDS011;3085;49.444;11.054;2023-04-15T06:44:28;8.23;;;4.43;;
6109;SDS011;3085;49.444;11.054;2023-04-15T06:46:55;7.27;;;4.10;;
6109;SDS011;3085;49.444;11.054;2023-04-15T06:49:22;8.80;;;4.43;;
6109;SDS011;3085;49.444;11.054;2023-04-15T06:51:49;10.47;;;4.83;;
6109;SDS011;3085;49.444;11.054;2023-04-15T06:54:18;8.50;;;4.57;;
6109;SDS011;3085;49.444;11.054;2023-04-15T06:56:44;9.23;;;5.10;;
6109;SDS011;3085;49.444;11.054;2023-04-15T06:59:11;8.10;;;4.30;;
6109;SDS011;3085;49.444;11.054;2023-04-15T07:01:39;7.77;;;4.70;;
6109;SDS011;3085;49.444;11.054;2023-04-15T07:04:06;8.57;;;4.50;;
6109;SDS011;3085;49.444;11.054;2023-04-15T07:06:32;5.70;;;4.40;;
6109;SDS011;3085;49.444;11.054;2023-04-15T07:08:59;9.03;;;5.07;;
6109;SDS011;3085;49.444;11.054;2023-04-15T07:11:28;15.47;;;5.60;;
6109;SDS011;3085;49.444;11.054;2023-04-15T07:13:56;8.50;;;4.87;;
6109;SDS011;3085;49.444;11.054;2023-04-15T07:16:23;10.23;;;4.60;;
6109;SDS011;3085;49.444;11.054;2023-04-15T07:18:50;8.00;;;4.80;;
6109;SDS011;3085;49.444;11.054;2023-04-15T07:21:16;9.07;;;5.23;;
6109;SDS011;3085;49.444;11.054;2023-04-15T07:23:43;10.93;;;4.80;;
6109;SDS011;3085;49.444;11.054;2023-04-15T07:26:10;10.03;;;5.10;;
6109;SDS011;3085;49.444;11.054;2023-04-15T07:28:38;8.30;;;4.77;;
6109;SDS011;3085;49.444;11.054;2023-04-15T07:31:05;6.13;;;3.87;;
6109;SDS011;3085;49.444;11.054;2023-04-15T07:33:32;7.63;;;5.30;;
6109;SDS011;3085;49.444;11.054;2023-04-15T07:35:59;6.50;;;4.73;;
6109;SDS011;3085;49.444;11.054;2023-04-15T07:38:26;7.80;;;4.23;;
6109;SDS011;3085;49.444;11.054;2023-04-15T07:40:54;7.97;;;4.63;;
6109;SDS011;3085;49.444;11.054;2023-04-15T07:43:20;6.23;;;4.53;;
6109;SDS011;3085;49.444;11.054;2023-04-15T07:45:49;8.20;;;5.00;;
6109;SDS011;3085;49.444;11.054;2023-04-15T07:48:15;5.57;;;3.77;;
6109;SDS011;3085;49.444;11.054;2023-04-15T07:50:42;14.23;;;4.63;;
6109;SDS011;3085;49.444;11.054;2023-04-15T07:53:09;8.37;;;4.90;;
6109;SDS011;3085;49.444;11.054;2023-04-15T07:55:36;5.00;;;3.37;;
6109;SDS011;3085;49.444;11.054;2023-04-15T07:58:03;5.00;;;3.20;;
6109;SDS011;3085;49.444;11.054;2023-04-15T08:03:13;4.97;;;3.93;;
6109;SDS011;3085;49.444;11.054;2023-04-15T08:05:40;5.60;;;4.07;;
6109;SDS011;3085;49.444;11.054;2023-04-15T08:08:07;7.70;;;3.83;;
6109;SDS011;3085;49.444;11.054;2023-04-15T08:10:34;4.87;;;3.33;;
6109;SDS011;3085;49.444;11.054;2023-04-15T08:13:01;5.20;;;3.53;;
6109;SDS011;3085;49.444;11.054;2023-04-15T08:15:27;9.77;;;4.10;;
6109;SDS011;3085;49.444;11.054;2023-04-15T08:17:56;6.53;;;3.43;;
6109;SDS011;3085;49.444;11.054;2023-04-15T08:20:26;8.20;;;5.23;;
6109;SDS011;3085;49.444;11.054;2023-04-15T08:22:52;6.90;;;3.93;;
6109;SDS011;3085;49.444;11.054;2023-04-15T08:25:19;5.83;;;3.37;;
6109;SDS011;3085;49.444;11.054;2023-04-15T08:27:46;7.17;;;3.40;;
6109;SDS011;3085;49.444;11.054;2023-04-15T08:30:13;9.17;;;3.33;;
6109;SDS011;3085;49.444;11.054;2023-04-15T08:32:40;3.70;;;2.77;;
6109;SDS011;3085;49.444;11.054;2023-04-15T08:35:08;4.57;;;2.90;;
6109;SDS011;3085;49.444;11.054;2023-04-15T08:37:37;4.60;;;3.30;;
6109;SDS011;3085;49.444;11.054;2023-04-15T08:40:04;2.70;;;2.23;;
6109;SDS011;3085;49.444;11.054;2023-04-15T08:42:34;6.70;;;2.97;;
6109;SDS011;3085;49.444;11.054;2023-04-15T08:45:07;3.67;;;2.20;;
6109;SDS011;3085;49.444;11.054;2023-04-15T08:47:35;2.03;;;1.83;;
6109;SDS011;3085;49.444;11.054;2023-04-15T08:50:04;2.93;;;2.13;;
6109;SDS011;3085;49.444;11.054;2023-04-15T08:52:33;2.10;;;1.80;;
6109;SDS011;3085;49.444;11.054;2023-04-15T08:55:02;2.40;;;1.90;;
6109;SDS011;3085;49.444;11.054;2023-04-15T08:57:30;2.30;;;1.67;;
6109;SDS011;3085;49.444;11.054;2023-04-15T08:59:58;2.90;;;1.80;;
6109;SDS011;3085;49.444;11.054;2023-04-15T09:02:27;3.23;;;2.17;;
6109;SDS011;3085;49.444;11.054;2023-04-15T09:04:55;2.93;;;2.00;;
6109;SDS011;3085;49.444;11.054;2023-04-15T09:07:22;2.80;;;2.03;;
6109;SDS011;3085;49.444;11.054;2023-04-15T09:09:48;1.70;;;1.60;;
6109;SDS011;3085;49.444;11.054;2023-04-15T09:12:17;4.17;;;2.10;;
6109;SDS011;3085;49.444;11.054;2023-04-15T09:14:44;2.30;;;2.10;;
6109;SDS011;3085;49.444;11.054;2023-04-15T09:17:12;2.07;;;1.87;;
6109;SDS011;3085;49.444;11.054;2023-04-15T09:19:43;5.67;;;2.33;;
6109;SDS011;3085;49.444;11.054;2023-04-15T09:22:10;1.80;;;1.70;;
6109;SDS011;3085;49.444;11.054;2023-04-15T09:24:39;3.03;;;2.30;;
6109;SDS011;3085;49.444;11.054;2023-04-15T09:27:07;2.70;;;1.80;;
6109;SDS011;3085;49.444;11.054;2023-04-15T09:29:35;2.87;;;2.00;;
6109;SDS011;3085;49.444;11.054;2023-04-15T09:32:09;2.70;;;2.00;;
6109;SDS011;3085;49.444;11.054;2023-04-15T09:34:36;2.60;;;2.17;;
6109;SDS011;3085;49.444;11.054;2023-04-15T09:37:03;2.63;;;2.30;;
6109;SDS011;3085;49.444;11.054;2023-04-15T09:42:14;2.67;;;2.10;;
6109;SDS011;3085;49.444;11.054;2023-04-15T09:44:42;4.70;;;2.33;;
6109;SDS011;3085;49.444;11.054;2023-04-15T09:47:16;2.80;;;2.10;;
6109;SDS011;3085;49.444;11.054;2023-04-15T09:49:56;8.47;;;3.23;;
6109;SDS011;3085;49.444;11.054;2023-04-15T09:52:23;3.13;;;2.40;;
6109;SDS011;3085;49.444;11.054;2023-04-15T09:54:52;2.60;;;2.00;;
6109;SDS011;3085;49.444;11.054;2023-04-15T09:57:20;3.83;;;2.10;;
6109;SDS011;3085;49.444;11.054;2023-04-15T09:59:49;3.80;;;2.40;;
6109;SDS011;3085;49.444;11.054;2023-04-15T10:02:16;2.80;;;2.20;;
6109;SDS011;3085;49.444;11.054;2023-04-15T10:04:44;3.70;;;2.50;;
6109;SDS011;3085;49.444;11.054;2023-04-15T10:07:14;3.03;;;2.43;;
6109;SDS011;3085;49.444;11.054;2023-04-15T10:09:44;3.03;;;2.27;;
6109;SDS011;3085;49.444;11.054;2023-04-15T10:12:11;2.57;;;2.23;;
6109;SDS011;3085;49.444;11.054;2023-04-15T10:14:42;3.53;;;2.37;;
6109;SDS011;3085;49.444;11.054;2023-04-15T10:17:11;3.70;;;2.40;;
6109;SDS011;3085;49.444;11.054;2023-04-15T10:19:39;3.83;;;2.47;;
6109;SDS011;3085;49.444;11.054;2023-04-15T10:22:07;2.43;;;2.23;;
6109;SDS011;3085;49.444;11.054;2023-04-15T10:24:34;3.77;;;2.60;;
6109;SDS011;3085;49.444;11.054;2023-04-15T10:27:02;1.70;;;1.60;;
6109;SDS011;3085;49.444;11.054;2023-04-15T10:29:29;2.83;;;2.33;;
6109;SDS011;3085;49.444;11.054;2023-04-15T10:31:57;3.03;;;2.10;;
6109;SDS011;3085;49.444;11.054;2023-04-15T10:34:26;3.43;;;2.17;;
6109;SDS011;3085;49.444;11.054;2023-04-15T10:36:55;7.77;;;2.67;;
6109;SDS011;3085;49.444;11.054;2023-04-15T10:42:05;2.97;;;2.40;;
6109;SDS011;3085;49.444;11.054;2023-04-15T10:44:32;3.23;;;2.50;;
6109;SDS011;3085;49.444;11.054;2023-04-15T10:47:06;2.20;;;2.00;;
6109;SDS011;3085;49.444;11.054;2023-04-15T10:49:43;2.60;;;2.40;;
6109;SDS011;3085;49.444;11.054;2023-04-15T10:52:11;4.80;;;2.90;;
6109;SDS011;3085;49.444;11.054;2023-04-15T10:54:39;3.87;;;2.57;;
6109;SDS011;3085;49.444;11.054;2023-04-15T10:57:07;3.57;;;2.80;;
6109;SDS011;3085;49.444;11.054;2023-04-15T11:02:42;2.37;;;2.13;;
6109;SDS011;3085;49.444;11.054;2023-04-15T11:05:14;5.77;;;2.83;;
6109;SDS011;3085;49.444;11.054;2023-04-15T11:07:48;4.30;;;2.90;;
6109;SDS011;3085;49.444;11.054;2023-04-15T11:13:27;6.80;;;2.33;;
6109;SDS011;3085;49.444;11.054;2023-04-15T11:15:56;4.20;;;2.73;;
6109;SDS011;3085;49.444;11.054;2023-04-15T11:18:25;4.10;;;2.70;;
6109;SDS011;3085;49.444;11.054;2023-04-15T11:20:56;6.53;;;2.97;;
6109;SDS011;3085;49.444;11.054;2023-04-15T11:23:28;5.17;;;2.90;;
6109;SDS011;3085;49.444;11.054;2023-04-15T11:25:57;3.40;;;3.10;;
6109;SDS011;3085;49.444;11.054;2023-04-15T11:28:25;5.63;;;2.37;;
6109;SDS011;3085;49.444;11.054;2023-04-15T11:30:53;3.30;;;2.20;;
6109;SDS011;3085;49.444;11.054;2023-04-15T11:33:21;3.80;;;2.53;;
6109;SDS011;3085;49.444;11.054;2023-04-15T11:35:49;3.73;;;2.63;;
6109;SDS011;3085;49.444;11.054;2023-04-15T11:38:19;4.70;;;2.50;;
6109;SDS011;3085;49.444;11.054;2023-04-15T11:40:46;3.57;;;2.50;;
6109;SDS011;3085;49.444;11.054;2023-04-15T11:43:14;2.83;;;2.30;;
6109;SDS011;3085;49.444;11.054;2023-04-15T11:45:48;3.37;;;2.30;;
6109;SDS011;3085;49.444;11.054;2023-04-15T11:48:23;2.87;;;2.57;;
6109;SDS011;3085;49.444;11.054;2023-04-15T11:51:02;3.40;;;2.33;;
6109;SDS011;3085;49.444;11.054;2023-04-15T11:53:38;3.33;;;2.20;;
6109;SDS011;3085;49.444;11.054;2023-04-15T11:56:16;3.90;;;2.50;;
6109;SDS011;3085;49.444;11.054;2023-04-15T11:58:47;7.77;;;2.87;;
6109;SDS011;3085;49.444;11.054;2023-04-15T12:01:29;2.83;;;2.57;;
6109;SDS011;3085;49.444;11.054;2023-04-15T12:03:57;3.60;;;2.10;;
6109;SDS011;3085;49.444;11.054;2023-04-15T12:06:28;3.60;;;2.60;;
6109;SDS011;3085;49.444;11.054;2023-04-15T12:09:09;7.77;;;2.73;;
6109;SDS011;3085;49.444;11.054;2023-04-15T12:11:38;4.23;;;2.50;;
6109;SDS011;3085;49.444;11.054;2023-04-15T12:14:08;3.67;;;2.80;;
6109;SDS011;3085;49.444;11.054;2023-04-15T12:16:46;3.57;;;2.40;;
6109;SDS011;3085;49.444;11.054;2023-04-15T12:19:24;2.83;;;2.20;;
6109;SDS011;3085;49.444;11.054;2023-04-15T12:21:56;3.33;;;2.47;;
6109;SDS011;3085;49.444;11.054;2023-04-15T12:24:26;7.13;;;2.67;;
6109;SDS011;3085;49.444;11.054;2023-04-15T12:27:01;4.00;;;2.67;;
6109;SDS011;3085;49.444;11.054;2023-04-15T12:29:29;2.90;;;2.37;;
6109;SDS011;3085;49.444;11.054;2023-04-15T12:31:57;2.87;;;2.53;;
6109;SDS011;3085;49.444;11.054;2023-04-15T12:34:33;3.80;;;2.47;;
6109;SDS011;3085;49.444;11.054;2023-04-15T12:37:01;4.50;;;2.53;;
6109;SDS011;3085;49.444;11.054;2023-04-15T12:39:31;3.87;;;2.77;;
6109;SDS011;3085;49.444;11.054;2023-04-15T12:42:01;3.13;;;2.20;;
6109;SDS011;3085;49.444;11.054;2023-04-15T12:44:28;8.00;;;2.67;;
6109;SDS011;3085;49.444;11.054;2023-04-15T12:46:55;5.30;;;2.27;;
6109;SDS011;3085;49.444;11.054;2023-04-15T12:49:23;5.17;;;2.70;;
6109;SDS011;3085;49.444;11.054;2023-04-15T12:51:51;2.23;;;2.00;;
6109;SDS011;3085;49.444;11.054;2023-04-15T12:54:19;3.07;;;2.70;;
6109;SDS011;3085;49.444;11.054;2023-04-15T12:56:48;3.57;;;2.30;;
6109;SDS011;3085;49.444;11.054;2023-04-15T12:59:15;4.87;;;2.43;;
6109;SDS011;3085;49.444;11.054;2023-04-15T13:01:43;3.67;;;2.60;;
6109;SDS011;3085;49.444;11.054;2023-04-15T13:04:41;3.30;;;2.43;;
6109;SDS011;3085;49.444;11.054;2023-04-15T13:07:04;3.70;;;2.33;;
6109;SDS011;3085;49.444;11.054;2023-04-15T13:09:41;4.80;;;2.47;;
6109;SDS011;3085;49.444;11.054;2023-04-15T13:12:16;4.07;;;2.80;;
6109;SDS011;3085;49.444;11.054;2023-04-15T13:14:43;3.13;;;2.17;;
6109;SDS011;3085;49.444;11.054;2023-04-15T13:17:13;3.00;;;2.30;;
6109;SDS011;3085;49.444;11.054;2023-04-15T13:19:41;3.03;;;2.17;;
6109;SDS011;3085;49.444;11.054;2023-04-15T13:22:08;5.70;;;2.57;;
6109;SDS011;3085;49.444;11.054;2023-04-15T13:24:35;2.00;;;1.80;;
6109;SDS011;3085;49.444;11.054;2023-04-15T13:27:03;3.07;;;2.10;;
6109;SDS011;3085;49.444;11.054;2023-04-15T13:29:32;2.07;;;1.87;;
6109;SDS011;3085;49.444;11.054;2023-04-15T13:32:02;4.33;;;2.10;;
6109;SDS011;3085;49.444;11.054;2023-04-15T13:34:30;4.13;;;1.90;;
6109;SDS011;3085;49.444;11.054;2023-04-15T13:36:56;2.17;;;1.93;;
6109;SDS011;3085;49.444;11.054;2023-04-15T13:39:24;5.50;;;2.50;;
6109;SDS011;3085;49.444;11.054;2023-04-15T13:41:51;3.03;;;2.53;;
6109;SDS011;3085;49.444;11.054;2023-04-15T13:44:18;3.13;;;2.23;;
6109;SDS011;3085;49.444;11.054;2023-04-15T13:46:46;3.17;;;2.20;;
6109;SDS011;3085;49.444;11.054;2023-04-15T13:49:13;5.10;;;2.63;;
6109;SDS011;3085;49.444;11.054;2023-04-15T13:51:39;3.10;;;2.27;;
6109;SDS011;3085;49.444;11.054;2023-04-15T13:54:06;4.00;;;2.70;;
6109;SDS011;3085;49.444;11.054;2023-04-15T13:56:33;2.97;;;2.27;;
6109;SDS011;3085;49.444;11.054;2023-04-15T13:59:00;4.20;;;3.20;;
6109;SDS011;3085;49.444;11.054;2023-04-15T14:01:27;3.10;;;2.20;;
6109;SDS011;3085;49.444;11.054;2023-04-15T14:03:55;3.60;;;2.27;;
6109;SDS011;3085;49.444;11.054;2023-04-15T14:06:22;2.80;;;2.37;;
6109;SDS011;3085;49.444;11.054;2023-04-15T14:08:50;6.40;;;2.57;;
6109;SDS011;3085;49.444;11.054;2023-04-15T14:11:17;3.73;;;2.30;;
6109;SDS011;3085;49.444;11.054;2023-04-15T14:13:44;2.40;;;1.90;;
6109;SDS011;3085;49.444;11.054;2023-04-15T14:16:11;3.07;;;2.37;;
6109;SDS011;3085;49.444;11.054;2023-04-15T14:18:38;3.30;;;2.37;;
6109;SDS011;3085;49.444;11.054;2023-04-15T14:21:06;2.87;;;2.30;;
6109;SDS011;3085;49.444;11.054;2023-04-15T14:23:34;2.30;;;2.07;;
6109;SDS011;3085;49.444;11.054;2023-04-15T14:26:01;3.30;;;2.40;;
6109;SDS011;3085;49.444;11.054;2023-04-15T14:28:28;5.27;;;2.60;;
6109;SDS011;3085;49.444;11.054;2023-04-15T14:30:56;2.40;;;2.07;;
6109;SDS011;3085;49.444;11.054;2023-04-15T14:33:23;4.10;;;2.57;;
6109;SDS011;3085;49.444;11.054;2023-04-15T14:35:49;2.60;;;2.10;;
6109;SDS011;3085;49.444;11.054;2023-04-15T14:38:18;3.80;;;2.13;;
6109;SDS011;3085;49.444;11.054;2023-04-15T14:40:46;3.57;;;2.07;;
6109;SDS011;3085;49.444;11.054;2023-04-15T14:43:13;2.43;;;2.03;;
6109;SDS011;3085;49.444;11.054;2023-04-15T14:45:41;3.83;;;2.53;;
6109;SDS011;3085;49.444;11.054;2023-04-15T14:48:08;2.37;;;1.93;;
6109;SDS011;3085;49.444;11.054;2023-04-15T14:50:36;3.50;;;2.17;;
6109;SDS011;3085;49.444;11.054;2023-04-15T14:53:03;3.00;;;2.30;;
6109;SDS011;3085;49.444;11.054;2023-04-15T14:55:32;2.17;;;1.97;;
6109;SDS011;3085;49.444;11.054;2023-04-15T14:57:58;3.20;;;2.30;;
6109;SDS011;3085;49.444;11.054;2023-04-15T15:00:26;3.53;;;2.10;;
6109;SDS011;3085;49.444;11.054;2023-04-15T15:02:56;4.80;;;2.30;;
6109;SDS011;3085;49.444;11.054;2023-04-15T15:05:23;4.23;;;2.20;;
6109;SDS011;3085;49.444;11.054;2023-04-15T15:07:50;3.87;;;2.20;;
6109;SDS011;3085;49.444;11.054;2023-04-15T15:10:17;3.10;;;2.70;;
6109;SDS011;3085;49.444;11.054;2023-04-15T15:12:47;3.83;;;2.20;;
6109;SDS011;3085;49.444;11.054;2023-04-15T15:15:14;2.23;;;2.00;;
6109;SDS011;3085;49.444;11.054;2023-04-15T15:17:40;8.17;;;2.63;;
6109;SDS011;3085;49.444;11.054;2023-04-15T15:20:07;4.50;;;2.10;;